sensor_id;sensor_type;location;lat;lon;timestamp;P1;durP1;ratioP1;P2;durP2;ratioP2
78877;SDS011;68257;43.514;1.498;2023-04-30T00:00:19;4.55;;;2.33;;
78877;SDS011;68257;43.514;1.498;2023-04-30T00:02:44;3.50;;;2.17;;
78877;SDS011;68257;43.514;1.498;2023-04-30T00:05:10;4.27;;;2.23;;
78877;SDS011;68257;43.514;1.498;2023-04-30T00:07:35;4.47;;;2.20;;
78877;SDS011;68257;43.514;1.498;2023-04-30T00:10:01;3.60;;;2.40;;
78877;SDS011;68257;43.514;1.498;2023-04-30T00:12:26;3.42;;;2.15;;
78877;SDS011;68257;43.514;1.498;2023-04-30T00:14:52;3.83;;;1.90;;
78877;SDS011;68257;43.514;1.498;2023-04-30T00:17:20;3.85;;;1.70;;
78877;SDS011;68257;43.514;1.498;2023-04-30T00:19:45;3.00;;;1.60;;
78877;SDS011;68257;43.514;1.498;2023-04-30T00:22:11;3.42;;;1.63;;
78877;SDS011;68257;43.514;1.498;2023-04-30T00:24:36;3.17;;;1.67;;
78877;SDS011;68257;43.514;1.498;2023-04-30T00:27:01;3.00;;;1.70;;
78877;SDS011;68257;43.514;1.498;2023-04-30T00:29:27;3.33;;;1.50;;
78877;SDS011;68257;43.514;1.498;2023-04-30T00:31:52;3.67;;;1.53;;
78877;SDS011;68257;43.514;1.498;2023-04-30T00:34:17;2.90;;;1.67;;
78877;SDS011;68257;43.514;1.498;2023-04-30T00:36:43;4.25;;;1.80;;
78877;SDS011;68257;43.514;1.498;2023-04-30T00:39:08;3.90;;;1.90;;
78877;SDS011;68257;43.514;1.498;2023-04-30T00:41:34;3.37;;;1.77;;
78877;SDS011;68257;43.514;1.498;2023-04-30T00:44:00;3.03;;;1.60;;
78877;SDS011;68257;43.514;1.498;2023-04-30T00:46:26;3.17;;;1.50;;
78877;SDS011;68257;43.514;1.498;2023-04-30T00:48:52;2.93;;;1.40;;
78877;SDS011;68257;43.514;1.498;2023-04-30T00:51:17;3.17;;;1.50;;
78877;SDS011;68257;43.514;1.498;2023-04-30T00:53:43;4.32;;;1.90;;
78877;SDS011;68257;43.514;1.498;2023-04-30T00:56:08;3.40;;;1.67;;
78877;SDS011;68257;43.514;1.498;2023-04-30T00:58:34;3.00;;;1.67;;
78877;SDS011;68257;43.514;1.498;2023-04-30T01:01:01;3.30;;;1.70;;
78877;SDS011;68257;43.514;1.498;2023-04-30T01:03:27;3.80;;;2.10;;
78877;SDS011;68257;43.514;1.498;2023-04-30T01:05:53;5.13;;;2.13;;
78877;SDS011;68257;43.514;1.498;2023-04-30T01:08:18;3.78;;;2.00;;
78877;SDS011;68257;43.514;1.498;2023-04-30T01:10:55;4.80;;;2.50;;
78877;SDS011;68257;43.514;1.498;2023-04-30T01:13:33;6.35;;;2.85;;
78877;SDS011;68257;43.514;1.498;2023-04-30T01:16:14;5.45;;;2.92;;
78877;SDS011;68257;43.514;1.498;2023-04-30T01:18:56;6.28;;;3.08;;
78877;SDS011;68257;43.514;1.498;2023-04-30T01:21:24;5.57;;;3.90;;
78877;SDS011;68257;43.514;1.498;2023-04-30T01:24:04;6.05;;;3.67;;
78877;SDS011;68257;43.514;1.498;2023-04-30T01:26:52;8.50;;;4.30;;
78877;SDS011;68257;43.514;1.498;2023-04-30T01:29:20;6.95;;;4.50;;
78877;SDS011;68257;43.514;1.498;2023-04-30T01:31:46;7.30;;;5.07;;
78877;SDS011;68257;43.514;1.498;2023-04-30T01:34:11;8.30;;;4.90;;
78877;SDS011;68257;43.514;1.498;2023-04-30T01:39:26;9.07;;;5.47;;
78877;SDS011;68257;43.514;1.498;2023-04-30T01:42:20;6.93;;;4.90;;
78877;SDS011;68257;43.514;1.498;2023-04-30T01:44:54;8.10;;;5.63;;
78877;SDS011;68257;43.514;1.498;2023-04-30T01:52:59;7.90;;;5.25;;
78877;SDS011;68257;43.514;1.498;2023-04-30T01:55:33;6.87;;;4.60;;
78877;SDS011;68257;43.514;1.498;2023-04-30T01:58:02;7.30;;;4.85;;
78877;SDS011;68257;43.514;1.498;2023-04-30T02:00:29;8.85;;;4.78;;
78877;SDS011;68257;43.514;1.498;2023-04-30T02:02:55;7.30;;;4.80;;
78877;SDS011;68257;43.514;1.498;2023-04-30T02:05:21;6.85;;;5.05;;
78877;SDS011;68257;43.514;1.498;2023-04-30T02:07:47;6.30;;;4.73;;
78877;SDS011;68257;43.514;1.498;2023-04-30T02:10:15;8.00;;;5.47;;
78877;SDS011;68257;43.514;1.498;2023-04-30T02:12:41;6.72;;;4.97;;
78877;SDS011;68257;43.514;1.498;2023-04-30T02:15:07;7.90;;;5.50;;
78877;SDS011;68257;43.514;1.498;2023-04-30T02:17:33;7.00;;;5.07;;
78877;SDS011;68257;43.514;1.498;2023-04-30T02:19:58;7.20;;;5.23;;
78877;SDS011;68257;43.514;1.498;2023-04-30T02:22:24;6.77;;;4.90;;
78877;SDS011;68257;43.514;1.498;2023-04-30T02:24:49;7.57;;;5.10;;
78877;SDS011;68257;43.514;1.498;2023-04-30T02:27:15;7.97;;;5.10;;
78877;SDS011;68257;43.514;1.498;2023-04-30T02:29:42;6.45;;;4.80;;
78877;SDS011;68257;43.514;1.498;2023-04-30T02:32:07;7.70;;;5.00;;
78877;SDS011;68257;43.514;1.498;2023-04-30T02:34:33;6.35;;;4.80;;
78877;SDS011;68257;43.514;1.498;2023-04-30T02:36:58;6.88;;;4.18;;
78877;SDS011;68257;43.514;1.498;2023-04-30T02:39:23;5.83;;;4.70;;
78877;SDS011;68257;43.514;1.498;2023-04-30T02:41:49;6.87;;;4.77;;
78877;SDS011;68257;43.514;1.498;2023-04-30T02:44:14;5.97;;;4.40;;
78877;SDS011;68257;43.514;1.498;2023-04-30T02:46:40;7.30;;;4.87;;
78877;SDS011;68257;43.514;1.498;2023-04-30T02:49:05;6.10;;;4.70;;
78877;SDS011;68257;43.514;1.498;2023-04-30T02:51:31;8.18;;;5.00;;
78877;SDS011;68257;43.514;1.498;2023-04-30T02:53:56;6.40;;;4.57;;
78877;SDS011;68257;43.514;1.498;2023-04-30T02:56:22;7.63;;;4.40;;
78877;SDS011;68257;43.514;1.498;2023-04-30T02:58:47;5.93;;;4.50;;
78877;SDS011;68257;43.514;1.498;2023-04-30T03:01:13;6.40;;;4.70;;
78877;SDS011;68257;43.514;1.498;2023-04-30T03:03:39;5.93;;;4.43;;
78877;SDS011;68257;43.514;1.498;2023-04-30T03:06:05;6.50;;;4.47;;
78877;SDS011;68257;43.514;1.498;2023-04-30T03:08:30;6.72;;;4.45;;
78877;SDS011;68257;43.514;1.498;2023-04-30T03:10:56;6.37;;;4.47;;
78877;SDS011;68257;43.514;1.498;2023-04-30T03:13:21;6.13;;;4.50;;
78877;SDS011;68257;43.514;1.498;2023-04-30T03:15:55;6.05;;;4.22;;
78877;SDS011;68257;43.514;1.498;2023-04-30T03:18:21;6.15;;;4.28;;
78877;SDS011;68257;43.514;1.498;2023-04-30T03:20:46;5.73;;;4.20;;
78877;SDS011;68257;43.514;1.498;2023-04-30T03:23:11;6.10;;;4.10;;
78877;SDS011;68257;43.514;1.498;2023-04-30T03:25:37;5.53;;;4.13;;
78877;SDS011;68257;43.514;1.498;2023-04-30T03:28:02;7.90;;;3.97;;
78877;SDS011;68257;43.514;1.498;2023-04-30T03:30:28;5.38;;;4.18;;
78877;SDS011;68257;43.514;1.498;2023-04-30T03:32:53;5.43;;;3.85;;
78877;SDS011;68257;43.514;1.498;2023-04-30T03:35:18;5.10;;;4.03;;
78877;SDS011;68257;43.514;1.498;2023-04-30T03:37:44;5.90;;;3.93;;
78877;SDS011;68257;43.514;1.498;2023-04-30T03:40:09;6.03;;;4.30;;
78877;SDS011;68257;43.514;1.498;2023-04-30T03:42:35;6.85;;;4.10;;
78877;SDS011;68257;43.514;1.498;2023-04-30T03:45:00;6.00;;;4.40;;
78877;SDS011;68257;43.514;1.498;2023-04-30T03:47:26;6.00;;;4.30;;
78877;SDS011;68257;43.514;1.498;2023-04-30T03:49:51;6.57;;;4.55;;
78877;SDS011;68257;43.514;1.498;2023-04-30T03:52:19;5.97;;;4.27;;
78877;SDS011;68257;43.514;1.498;2023-04-30T03:54:45;6.35;;;4.45;;
78877;SDS011;68257;43.514;1.498;2023-04-30T03:57:10;6.00;;;4.60;;
78877;SDS011;68257;43.514;1.498;2023-04-30T03:59:38;5.90;;;4.50;;
78877;SDS011;68257;43.514;1.498;2023-04-30T04:02:03;6.82;;;4.60;;
78877;SDS011;68257;43.514;1.498;2023-04-30T04:04:30;6.60;;;4.65;;
78877;SDS011;68257;43.514;1.498;2023-04-30T04:06:55;5.60;;;4.30;;
78877;SDS011;68257;43.514;1.498;2023-04-30T04:09:21;5.53;;;4.10;;
78877;SDS011;68257;43.514;1.498;2023-04-30T04:11:46;7.90;;;4.53;;
78877;SDS011;68257;43.514;1.498;2023-04-30T04:14:12;6.73;;;4.17;;
78877;SDS011;68257;43.514;1.498;2023-04-30T04:16:38;6.83;;;4.53;;
78877;SDS011;68257;43.514;1.498;2023-04-30T04:19:03;5.88;;;4.13;;
78877;SDS011;68257;43.514;1.498;2023-04-30T04:21:28;5.43;;;3.90;;
78877;SDS011;68257;43.514;1.498;2023-04-30T04:23:55;6.40;;;4.28;;
78877;SDS011;68257;43.514;1.498;2023-04-30T04:26:20;5.90;;;4.70;;
78877;SDS011;68257;43.514;1.498;2023-04-30T04:28:49;8.27;;;4.50;;
78877;SDS011;68257;43.514;1.498;2023-04-30T04:31:15;6.10;;;4.90;;
78877;SDS011;68257;43.514;1.498;2023-04-30T04:33:41;7.47;;;4.57;;
78877;SDS011;68257;43.514;1.498;2023-04-30T04:36:06;6.70;;;4.53;;
78877;SDS011;68257;43.514;1.498;2023-04-30T04:38:32;9.40;;;5.60;;
78877;SDS011;68257;43.514;1.498;2023-04-30T04:40:58;7.55;;;4.93;;
78877;SDS011;68257;43.514;1.498;2023-04-30T04:43:23;7.53;;;5.17;;
78877;SDS011;68257;43.514;1.498;2023-04-30T04:45:48;7.73;;;5.20;;
78877;SDS011;68257;43.514;1.498;2023-04-30T04:48:14;11.02;;;5.00;;
78877;SDS011;68257;43.514;1.498;2023-04-30T04:50:39;7.97;;;5.03;;
78877;SDS011;68257;43.514;1.498;2023-04-30T04:53:05;7.80;;;5.07;;
78877;SDS011;68257;43.514;1.498;2023-04-30T04:55:30;6.63;;;4.57;;
78877;SDS011;68257;43.514;1.498;2023-04-30T04:57:56;6.47;;;4.60;;
78877;SDS011;68257;43.514;1.498;2023-04-30T05:00:21;7.53;;;4.80;;
78877;SDS011;68257;43.514;1.498;2023-04-30T05:02:47;8.77;;;4.67;;
78877;SDS011;68257;43.514;1.498;2023-04-30T05:05:13;6.90;;;5.32;;
78877;SDS011;68257;43.514;1.498;2023-04-30T05:07:38;7.00;;;4.60;;
78877;SDS011;68257;43.514;1.498;2023-04-30T05:10:04;8.02;;;5.00;;
78877;SDS011;68257;43.514;1.498;2023-04-30T05:12:30;6.32;;;4.88;;
78877;SDS011;68257;43.514;1.498;2023-04-30T05:14:56;7.45;;;5.25;;
78877;SDS011;68257;43.514;1.498;2023-04-30T05:17:21;7.17;;;4.80;;
78877;SDS011;68257;43.514;1.498;2023-04-30T05:19:47;7.13;;;5.27;;
78877;SDS011;68257;43.514;1.498;2023-04-30T05:22:14;7.82;;;5.38;;
78877;SDS011;68257;43.514;1.498;2023-04-30T05:24:40;8.53;;;5.30;;
78877;SDS011;68257;43.514;1.498;2023-04-30T05:27:05;7.40;;;5.13;;
78877;SDS011;68257;43.514;1.498;2023-04-30T05:29:31;8.70;;;5.40;;
78877;SDS011;68257;43.514;1.498;2023-04-30T05:31:56;7.97;;;5.25;;
78877;SDS011;68257;43.514;1.498;2023-04-30T05:34:21;7.77;;;5.30;;
78877;SDS011;68257;43.514;1.498;2023-04-30T05:36:47;8.10;;;5.37;;
78877;SDS011;68257;43.514;1.498;2023-04-30T05:39:12;8.37;;;5.50;;
78877;SDS011;68257;43.514;1.498;2023-04-30T05:41:38;7.90;;;5.45;;
78877;SDS011;68257;43.514;1.498;2023-04-30T05:44:03;7.70;;;5.27;;
78877;SDS011;68257;43.514;1.498;2023-04-30T05:46:29;8.50;;;5.78;;
78877;SDS011;68257;43.514;1.498;2023-04-30T05:48:55;8.27;;;5.35;;
78877;SDS011;68257;43.514;1.498;2023-04-30T05:51:20;7.87;;;5.53;;
78877;SDS011;68257;43.514;1.498;2023-04-30T05:53:45;9.10;;;5.73;;
78877;SDS011;68257;43.514;1.498;2023-04-30T05:56:11;9.07;;;5.70;;
78877;SDS011;68257;43.514;1.498;2023-04-30T05:58:37;8.03;;;5.23;;
78877;SDS011;68257;43.514;1.498;2023-04-30T06:01:03;8.85;;;5.25;;
78877;SDS011;68257;43.514;1.498;2023-04-30T06:03:29;7.32;;;5.13;;
78877;SDS011;68257;43.514;1.498;2023-04-30T06:05:55;7.13;;;5.03;;
78877;SDS011;68257;43.514;1.498;2023-04-30T06:08:20;9.35;;;5.20;;
78877;SDS011;68257;43.514;1.498;2023-04-30T06:10:46;6.73;;;4.93;;
78877;SDS011;68257;43.514;1.498;2023-04-30T06:13:12;8.75;;;4.95;;
78877;SDS011;68257;43.514;1.498;2023-04-30T06:15:38;8.20;;;5.07;;
78877;SDS011;68257;43.514;1.498;2023-04-30T06:18:04;7.73;;;4.90;;
78877;SDS011;68257;43.514;1.498;2023-04-30T06:20:30;6.90;;;5.00;;
78877;SDS011;68257;43.514;1.498;2023-04-30T06:22:55;7.78;;;4.90;;
78877;SDS011;68257;43.514;1.498;2023-04-30T06:25:20;8.87;;;5.47;;
78877;SDS011;68257;43.514;1.498;2023-04-30T06:27:46;7.93;;;5.30;;
78877;SDS011;68257;43.514;1.498;2023-04-30T06:30:11;8.30;;;5.40;;
78877;SDS011;68257;43.514;1.498;2023-04-30T06:32:37;7.90;;;5.55;;
78877;SDS011;68257;43.514;1.498;2023-04-30T06:35:02;7.87;;;5.13;;
78877;SDS011;68257;43.514;1.498;2023-04-30T06:37:28;9.05;;;5.82;;
78877;SDS011;68257;43.514;1.498;2023-04-30T06:39:54;9.53;;;6.63;;
78877;SDS011;68257;43.514;1.498;2023-04-30T06:42:19;12.77;;;6.27;;
78877;SDS011;68257;43.514;1.498;2023-04-30T06:44:45;12.73;;;6.72;;
78877;SDS011;68257;43.514;1.498;2023-04-30T06:47:11;10.17;;;6.47;;
78877;SDS011;68257;43.514;1.498;2023-04-30T06:49:36;11.65;;;6.40;;
78877;SDS011;68257;43.514;1.498;2023-04-30T06:52:02;9.93;;;6.73;;
78877;SDS011;68257;43.514;1.498;2023-04-30T06:54:27;10.60;;;7.17;;
78877;SDS011;68257;43.514;1.498;2023-04-30T06:56:53;11.40;;;6.67;;
78877;SDS011;68257;43.514;1.498;2023-04-30T06:59:18;10.65;;;6.72;;
78877;SDS011;68257;43.514;1.498;2023-04-30T07:01:44;11.17;;;6.67;;
78877;SDS011;68257;43.514;1.498;2023-04-30T07:04:09;10.33;;;6.80;;
78877;SDS011;68257;43.514;1.498;2023-04-30T07:06:34;12.47;;;6.70;;
78877;SDS011;68257;43.514;1.498;2023-04-30T07:09:00;9.90;;;6.55;;
78877;SDS011;68257;43.514;1.498;2023-04-30T07:11:26;10.77;;;6.80;;
78877;SDS011;68257;43.514;1.498;2023-04-30T07:13:52;11.55;;;6.40;;
78877;SDS011;68257;43.514;1.498;2023-04-30T07:16:17;11.80;;;6.93;;
78877;SDS011;68257;43.514;1.498;2023-04-30T07:18:43;10.03;;;6.50;;
78877;SDS011;68257;43.514;1.498;2023-04-30T07:21:08;10.35;;;6.28;;
78877;SDS011;68257;43.514;1.498;2023-04-30T07:23:34;9.60;;;6.23;;
78877;SDS011;68257;43.514;1.498;2023-04-30T07:25:59;9.43;;;6.50;;
78877;SDS011;68257;43.514;1.498;2023-04-30T07:28:25;9.60;;;6.53;;
78877;SDS011;68257;43.514;1.498;2023-04-30T07:30:50;9.57;;;5.80;;
78877;SDS011;68257;43.514;1.498;2023-04-30T07:33:17;12.30;;;6.63;;
78877;SDS011;68257;43.514;1.498;2023-04-30T07:35:42;9.77;;;6.07;;
78877;SDS011;68257;43.514;1.498;2023-04-30T07:38:07;9.67;;;6.13;;
78877;SDS011;68257;43.514;1.498;2023-04-30T07:40:33;10.57;;;5.77;;
78877;SDS011;68257;43.514;1.498;2023-04-30T07:42:58;9.13;;;6.00;;
78877;SDS011;68257;43.514;1.498;2023-04-30T07:45:24;11.93;;;5.70;;
78877;SDS011;68257;43.514;1.498;2023-04-30T07:47:49;8.67;;;5.23;;
78877;SDS011;68257;43.514;1.498;2023-04-30T07:50:14;8.57;;;4.87;;
78877;SDS011;68257;43.514;1.498;2023-04-30T07:52:40;8.82;;;5.07;;
78877;SDS011;68257;43.514;1.498;2023-04-30T07:55:06;6.73;;;4.23;;
78877;SDS011;68257;43.514;1.498;2023-04-30T07:57:32;7.18;;;4.45;;
78877;SDS011;68257;43.514;1.498;2023-04-30T07:59:57;8.40;;;4.80;;
78877;SDS011;68257;43.514;1.498;2023-04-30T08:02:23;6.57;;;4.10;;
78877;SDS011;68257;43.514;1.498;2023-04-30T08:04:48;5.50;;;3.90;;
78877;SDS011;68257;43.514;1.498;2023-04-30T08:07:13;5.90;;;3.92;;
78877;SDS011;68257;43.514;1.498;2023-04-30T08:09:42;5.72;;;3.90;;
78877;SDS011;68257;43.514;1.498;2023-04-30T08:12:07;6.43;;;3.67;;
78877;SDS011;68257;43.514;1.498;2023-04-30T08:14:33;4.93;;;2.83;;
78877;SDS011;68257;43.514;1.498;2023-04-30T08:16:59;5.20;;;2.65;;
78877;SDS011;68257;43.514;1.498;2023-04-30T08:19:26;4.25;;;2.20;;
78877;SDS011;68257;43.514;1.498;2023-04-30T08:21:52;4.70;;;2.37;;
78877;SDS011;68257;43.514;1.498;2023-04-30T08:24:17;5.33;;;2.00;;
78877;SDS011;68257;43.514;1.498;2023-04-30T08:26:42;4.97;;;2.15;;
78877;SDS011;68257;43.514;1.498;2023-04-30T08:29:08;4.20;;;2.10;;
78877;SDS011;68257;43.514;1.498;2023-04-30T08:31:33;4.17;;;2.30;;
78877;SDS011;68257;43.514;1.498;2023-04-30T08:33:59;5.15;;;2.83;;
78877;SDS011;68257;43.514;1.498;2023-04-30T08:36:25;5.00;;;3.00;;
78877;SDS011;68257;43.514;1.498;2023-04-30T08:38:51;4.68;;;3.03;;
78877;SDS011;68257;43.514;1.498;2023-04-30T08:41:17;5.00;;;3.30;;
78877;SDS011;68257;43.514;1.498;2023-04-30T08:43:44;5.50;;;3.55;;
78877;SDS011;68257;43.514;1.498;2023-04-30T08:46:10;6.07;;;3.37;;
78877;SDS011;68257;43.514;1.498;2023-04-30T08:48:37;5.13;;;3.10;;
78877;SDS011;68257;43.514;1.498;2023-04-30T08:51:03;5.93;;;3.40;;
78877;SDS011;68257;43.514;1.498;2023-04-30T08:53:29;5.35;;;3.40;;
78877;SDS011;68257;43.514;1.498;2023-04-30T08:55:56;7.22;;;3.50;;
78877;SDS011;68257;43.514;1.498;2023-04-30T08:58:22;7.25;;;3.50;;
78877;SDS011;68257;43.514;1.498;2023-04-30T09:00:47;6.65;;;3.75;;
78877;SDS011;68257;43.514;1.498;2023-04-30T09:03:13;4.85;;;3.50;;
78877;SDS011;68257;43.514;1.498;2023-04-30T09:05:38;5.67;;;3.70;;
78877;SDS011;68257;43.514;1.498;2023-04-30T09:08:04;6.90;;;4.23;;
78877;SDS011;68257;43.514;1.498;2023-04-30T09:10:31;8.35;;;4.35;;
78877;SDS011;68257;43.514;1.498;2023-04-30T09:15:26;6.78;;;4.13;;
78877;SDS011;68257;43.514;1.498;2023-04-30T09:20:33;8.18;;;5.20;;
78877;SDS011;68257;43.514;1.498;2023-04-30T09:23:05;7.60;;;4.93;;
78877;SDS011;68257;43.514;1.498;2023-04-30T09:25:39;7.43;;;5.00;;
78877;SDS011;68257;43.514;1.498;2023-04-30T09:28:06;7.57;;;5.15;;
78877;SDS011;68257;43.514;1.498;2023-04-30T09:30:35;9.98;;;5.35;;
78877;SDS011;68257;43.514;1.498;2023-04-30T09:33:01;8.10;;;5.10;;
78877;SDS011;68257;43.514;1.498;2023-04-30T09:35:33;9.15;;;5.28;;
78877;SDS011;68257;43.514;1.498;2023-04-30T09:37:59;6.83;;;5.07;;
78877;SDS011;68257;43.514;1.498;2023-04-30T09:40:33;8.75;;;4.95;;
78877;SDS011;68257;43.514;1.498;2023-04-30T09:42:59;8.32;;;5.00;;
78877;SDS011;68257;43.514;1.498;2023-04-30T09:45:25;10.13;;;5.00;;
78877;SDS011;68257;43.514;1.498;2023-04-30T09:47:53;8.25;;;4.95;;
78877;SDS011;68257;43.514;1.498;2023-04-30T09:50:19;8.75;;;5.00;;
78877;SDS011;68257;43.514;1.498;2023-04-30T09:52:50;8.38;;;4.38;;
78877;SDS011;68257;43.514;1.498;2023-04-30T09:55:17;7.00;;;4.40;;
78877;SDS011;68257;43.514;1.498;2023-04-30T09:57:43;7.55;;;4.82;;
78877;SDS011;68257;43.514;1.498;2023-04-30T10:00:09;7.85;;;5.10;;
78877;SDS011;68257;43.514;1.498;2023-04-30T10:02:35;8.13;;;4.70;;
78877;SDS011;68257;43.514;1.498;2023-04-30T10:05:01;7.93;;;5.00;;
78877;SDS011;68257;43.514;1.498;2023-04-30T10:07:33;7.65;;;4.85;;
78877;SDS011;68257;43.514;1.498;2023-04-30T10:10:05;8.52;;;5.55;;
78877;SDS011;68257;43.514;1.498;2023-04-30T10:12:33;9.02;;;5.20;;
78877;SDS011;68257;43.514;1.498;2023-04-30T10:15:12;8.45;;;5.15;;
78877;SDS011;68257;43.514;1.498;2023-04-30T10:17:40;9.13;;;5.60;;
78877;SDS011;68257;43.514;1.498;2023-04-30T10:20:06;9.20;;;5.82;;
78877;SDS011;68257;43.514;1.498;2023-04-30T10:22:34;10.15;;;5.55;;
78877;SDS011;68257;43.514;1.498;2023-04-30T10:24:59;9.80;;;6.20;;
78877;SDS011;68257;43.514;1.498;2023-04-30T10:27:26;9.07;;;6.43;;
78877;SDS011;68257;43.514;1.498;2023-04-30T10:29:51;9.70;;;6.55;;
78877;SDS011;68257;43.514;1.498;2023-04-30T10:32:17;12.40;;;7.25;;
78877;SDS011;68257;43.514;1.498;2023-04-30T10:37:14;11.55;;;6.93;;
78877;SDS011;68257;43.514;1.498;2023-04-30T10:39:46;12.98;;;7.75;;
78877;SDS011;68257;43.514;1.498;2023-04-30T10:42:11;11.97;;;7.33;;
78877;SDS011;68257;43.514;1.498;2023-04-30T10:44:37;12.77;;;8.18;;
78877;SDS011;68257;43.514;1.498;2023-04-30T10:47:04;13.67;;;8.07;;
78877;SDS011;68257;43.514;1.498;2023-04-30T10:49:30;17.20;;;8.45;;
78877;SDS011;68257;43.514;1.498;2023-04-30T10:51:59;12.55;;;8.05;;
78877;SDS011;68257;43.514;1.498;2023-04-30T10:54:26;12.30;;;7.67;;
78877;SDS011;68257;43.514;1.498;2023-04-30T10:56:53;15.98;;;9.95;;
78877;SDS011;68257;43.514;1.498;2023-04-30T10:59:21;16.48;;;10.70;;
78877;SDS011;68257;43.514;1.498;2023-04-30T11:01:57;13.68;;;8.40;;
78877;SDS011;68257;43.514;1.498;2023-04-30T11:04:24;12.98;;;7.88;;
78877;SDS011;68257;43.514;1.498;2023-04-30T11:07:00;12.87;;;7.50;;
78877;SDS011;68257;43.514;1.498;2023-04-30T11:09:40;12.75;;;7.57;;
78877;SDS011;68257;43.514;1.498;2023-04-30T11:12:15;12.82;;;7.45;;
78877;SDS011;68257;43.514;1.498;2023-04-30T11:14:44;12.07;;;7.38;;
78877;SDS011;68257;43.514;1.498;2023-04-30T11:17:12;13.25;;;7.85;;
78877;SDS011;68257;43.514;1.498;2023-04-30T11:19:46;12.97;;;7.27;;
78877;SDS011;68257;43.514;1.498;2023-04-30T11:24:51;12.30;;;7.87;;
78877;SDS011;68257;43.514;1.498;2023-04-30T11:27:23;11.30;;;7.57;;
78877;SDS011;68257;43.514;1.498;2023-04-30T11:29:49;12.23;;;7.25;;
78877;SDS011;68257;43.514;1.498;2023-04-30T11:32:16;12.35;;;7.60;;
78877;SDS011;68257;43.514;1.498;2023-04-30T11:34:42;10.85;;;6.95;;
78877;SDS011;68257;43.514;1.498;2023-04-30T11:37:11;10.70;;;7.30;;
78877;SDS011;68257;43.514;1.498;2023-04-30T11:39:39;12.95;;;8.02;;
78877;SDS011;68257;43.514;1.498;2023-04-30T11:42:05;12.10;;;7.28;;
78877;SDS011;68257;43.514;1.498;2023-04-30T11:44:31;12.98;;;7.35;;
78877;SDS011;68257;43.514;1.498;2023-04-30T11:46:57;11.77;;;7.23;;
78877;SDS011;68257;43.514;1.498;2023-04-30T11:49:22;12.23;;;7.20;;
78877;SDS011;68257;43.514;1.498;2023-04-30T11:51:48;10.43;;;7.60;;
78877;SDS011;68257;43.514;1.498;2023-04-30T11:54:14;12.32;;;7.40;;
78877;SDS011;68257;43.514;1.498;2023-04-30T11:56:44;11.30;;;6.80;;
78877;SDS011;68257;43.514;1.498;2023-04-30T11:59:12;12.82;;;7.40;;
78877;SDS011;68257;43.514;1.498;2023-04-30T12:01:38;11.67;;;6.30;;
78877;SDS011;68257;43.514;1.498;2023-04-30T12:04:04;10.27;;;6.75;;
78877;SDS011;68257;43.514;1.498;2023-04-30T12:06:30;9.30;;;6.10;;
78877;SDS011;68257;43.514;1.498;2023-04-30T12:08:57;10.38;;;5.78;;
78877;SDS011;68257;43.514;1.498;2023-04-30T12:11:26;8.50;;;5.93;;
78877;SDS011;68257;43.514;1.498;2023-04-30T12:13:53;8.52;;;6.03;;
78877;SDS011;68257;43.514;1.498;2023-04-30T12:16:22;9.65;;;5.85;;
78877;SDS011;68257;43.514;1.498;2023-04-30T12:18:48;9.45;;;5.68;;
78877;SDS011;68257;43.514;1.498;2023-04-30T12:21:14;8.07;;;5.13;;
78877;SDS011;68257;43.514;1.498;2023-04-30T12:23:39;8.85;;;5.07;;
78877;SDS011;68257;43.514;1.498;2023-04-30T12:26:05;8.17;;;5.10;;
78877;SDS011;68257;43.514;1.498;2023-04-30T12:28:30;7.97;;;5.00;;
78877;SDS011;68257;43.514;1.498;2023-04-30T12:30:58;8.75;;;4.90;;
78877;SDS011;68257;43.514;1.498;2023-04-30T12:33:24;7.03;;;4.77;;
78877;SDS011;68257;43.514;1.498;2023-04-30T12:35:55;7.38;;;4.80;;
78877;SDS011;68257;43.514;1.498;2023-04-30T12:38:21;9.43;;;5.20;;
78877;SDS011;68257;43.514;1.498;2023-04-30T12:40:47;8.13;;;4.77;;
78877;SDS011;68257;43.514;1.498;2023-04-30T12:43:14;8.88;;;5.18;;
78877;SDS011;68257;43.514;1.498;2023-04-30T12:45:50;8.20;;;5.47;;
78877;SDS011;68257;43.514;1.498;2023-04-30T12:48:16;6.93;;;5.33;;
78877;SDS011;68257;43.514;1.498;2023-04-30T12:50:46;5.97;;;3.92;;
78877;SDS011;68257;43.514;1.498;2023-04-30T12:53:22;6.97;;;3.60;;
78877;SDS011;68257;43.514;1.498;2023-04-30T12:58:36;8.23;;;3.95;;
78877;SDS011;68257;43.514;1.498;2023-04-30T13:01:02;6.10;;;4.15;;
78877;SDS011;68257;43.514;1.498;2023-04-30T13:03:27;7.13;;;4.20;;
78877;SDS011;68257;43.514;1.498;2023-04-30T13:05:53;6.80;;;4.75;;
78877;SDS011;68257;43.514;1.498;2023-04-30T13:08:19;6.00;;;4.03;;
78877;SDS011;68257;43.514;1.498;2023-04-30T13:10:45;7.03;;;4.45;;
78877;SDS011;68257;43.514;1.498;2023-04-30T13:13:11;5.90;;;4.37;;
78877;SDS011;68257;43.514;1.498;2023-04-30T13:15:37;6.43;;;4.57;;
78877;SDS011;68257;43.514;1.498;2023-04-30T13:18:04;6.85;;;4.75;;
78877;SDS011;68257;43.514;1.498;2023-04-30T13:20:32;7.88;;;5.10;;
78877;SDS011;68257;43.514;1.498;2023-04-30T13:22:58;5.77;;;4.40;;
78877;SDS011;68257;43.514;1.498;2023-04-30T13:25:23;7.63;;;4.93;;
78877;SDS011;68257;43.514;1.498;2023-04-30T13:27:48;6.30;;;4.47;;
78877;SDS011;68257;43.514;1.498;2023-04-30T13:30:14;6.10;;;4.40;;
78877;SDS011;68257;43.514;1.498;2023-04-30T13:32:40;7.57;;;3.87;;
78877;SDS011;68257;43.514;1.498;2023-04-30T13:35:06;5.78;;;4.07;;
78877;SDS011;68257;43.514;1.498;2023-04-30T13:37:32;8.55;;;4.00;;
78877;SDS011;68257;43.514;1.498;2023-04-30T13:39:59;6.53;;;4.35;;
78877;SDS011;68257;43.514;1.498;2023-04-30T13:42:25;6.13;;;4.53;;
78877;SDS011;68257;43.514;1.498;2023-04-30T13:44:51;6.32;;;4.07;;
78877;SDS011;68257;43.514;1.498;2023-04-30T13:47:16;6.03;;;3.40;;
78877;SDS011;68257;43.514;1.498;2023-04-30T13:49:42;5.00;;;3.70;;
78877;SDS011;68257;43.514;1.498;2023-04-30T13:52:07;5.37;;;3.77;;
78877;SDS011;68257;43.514;1.498;2023-04-30T13:54:32;5.47;;;3.67;;
78877;SDS011;68257;43.514;1.498;2023-04-30T13:56:58;5.47;;;3.80;;
78877;SDS011;68257;43.514;1.498;2023-04-30T13:59:24;5.40;;;4.10;;
78877;SDS011;68257;43.514;1.498;2023-04-30T14:01:49;4.32;;;3.80;;
78877;SDS011;68257;43.514;1.498;2023-04-30T14:04:14;7.10;;;4.20;;
78877;SDS011;68257;43.514;1.498;2023-04-30T14:06:40;5.93;;;5.10;;
78877;SDS011;68257;43.514;1.498;2023-04-30T14:09:06;5.80;;;4.60;;
78877;SDS011;68257;43.514;1.498;2023-04-30T14:11:31;5.13;;;3.90;;
78877;SDS011;68257;43.514;1.498;2023-04-30T14:13:57;5.10;;;3.60;;
78877;SDS011;68257;43.514;1.498;2023-04-30T14:16:22;5.27;;;3.70;;
78877;SDS011;68257;43.514;1.498;2023-04-30T14:18:48;6.17;;;4.13;;
78877;SDS011;68257;43.514;1.498;2023-04-30T14:21:13;7.45;;;4.00;;
78877;SDS011;68257;43.514;1.498;2023-04-30T14:23:39;7.63;;;4.53;;
78877;SDS011;68257;43.514;1.498;2023-04-30T14:26:05;5.03;;;4.53;;
78877;SDS011;68257;43.514;1.498;2023-04-30T14:28:31;6.77;;;4.80;;
78877;SDS011;68257;43.514;1.498;2023-04-30T14:30:56;5.05;;;4.05;;
78877;SDS011;68257;43.514;1.498;2023-04-30T14:33:22;3.83;;;3.37;;
78877;SDS011;68257;43.514;1.498;2023-04-30T14:35:47;4.20;;;3.10;;
78877;SDS011;68257;43.514;1.498;2023-04-30T14:38:13;5.60;;;4.10;;
78877;SDS011;68257;43.514;1.498;2023-04-30T14:40:38;6.13;;;4.20;;
78877;SDS011;68257;43.514;1.498;2023-04-30T14:43:04;4.87;;;4.10;;
78877;SDS011;68257;43.514;1.498;2023-04-30T14:45:31;5.30;;;4.28;;
78877;SDS011;68257;43.514;1.498;2023-04-30T14:47:57;5.40;;;4.30;;
78877;SDS011;68257;43.514;1.498;2023-04-30T14:50:22;4.63;;;4.22;;
78877;SDS011;68257;43.514;1.498;2023-04-30T14:52:48;5.33;;;4.03;;
78877;SDS011;68257;43.514;1.498;2023-04-30T14:55:14;5.45;;;3.95;;
78877;SDS011;68257;43.514;1.498;2023-04-30T14:57:39;4.57;;;3.50;;
78877;SDS011;68257;43.514;1.498;2023-04-30T15:00:05;3.73;;;2.90;;
78877;SDS011;68257;43.514;1.498;2023-04-30T15:02:31;4.57;;;3.13;;